Chippewa Bay, New York
Current Conditions -  °F | °C
As of 3:58 AM on Wednesday 28 Jan 2015 (Local Time) from KGTB Reporting Station
Clear Clear  
Wind Chill: -7°   Ceiling: Unl
Heat Index:   Visibility: 10mi
Dew Point: -6°   Wind: 5mph
Humidity: 68%   Direction: 310°NW
Pressure: 30.04"   Gusts: NA
Location:  44.44°N, 75.76°W
Report Text: KGTB 280858Z AUTO 31004KT 10SM CLR M16/M21 A3004 RMK AO2 SLP189 T11651212 52010
Loading
Personal Weather Stations






























Interactive Weather Map New forecast layout! Learn more

10-Day Weather Forecast

Advertisements
Track Severe Weather on mobile